createdAt,value
2018-07-12T00:00:02.703Z,99.99
2018-07-12T00:01:02.766Z,99.99
2018-07-12T00:02:02.651Z,99.99
2018-07-12T00:03:02.693Z,99.99
2018-07-12T00:04:02.606Z,99.99
2018-07-12T00:05:02.715Z,99.99
2018-07-12T00:06:02.546Z,99.99
2018-07-12T00:07:02.660Z,99.99
2018-07-12T00:08:02.494Z,99.99
2018-07-12T00:09:02.513Z,99.99
2018-07-12T00:10:02.480Z,99.99
2018-07-12T00:11:02.536Z,99.99
2018-07-12T00:12:02.396Z,99.99
2018-07-12T00:13:02.452Z,99.99
2018-07-12T00:14:02.350Z,99.99
2018-07-12T00:15:02.349Z,99.99
2018-07-12T00:16:02.296Z,99.99
2018-07-12T00:17:02.360Z,99.99
2018-07-12T00:18:02.240Z,99.99
2018-07-12T00:19:03.296Z,99.99
2018-07-12T00:20:02.209Z,99.99
2018-07-12T00:21:02.277Z,99.99
2018-07-12T00:22:02.150Z,99.99
2018-07-12T00:23:02.190Z,99.99
2018-07-12T00:24:02.095Z,99.99
2018-07-12T00:25:02.111Z,99.99
2018-07-12T00:26:02.068Z,99.99
2018-07-12T00:27:02.151Z,99.99
2018-07-12T00:28:01.998Z,99.99
2018-07-12T00:29:02.033Z,99.99
2018-07-12T00:30:01.938Z,99.99
2018-07-12T00:31:01.932Z,99.99
2018-07-12T00:32:01.911Z,99.99
2018-07-12T00:33:02.032Z,99.99
2018-07-12T00:34:01.863Z,99.99
2018-07-12T00:35:02.903Z,99.99
2018-07-12T00:39:47.156Z,99.99
2018-07-12T00:40:44.490Z,99.99
2018-07-12T00:41:44.444Z,99.99
2018-07-12T00:42:44.497Z,99.99
2018-07-12T00:43:44.391Z,99.99
2018-07-12T00:44:44.410Z,99.99
2018-07-12T00:45:44.351Z,99.99
2018-07-12T00:46:44.427Z,99.99
2018-07-12T00:47:44.297Z,99.99
2018-07-12T00:48:44.359Z,99.99
2018-07-12T00:49:44.236Z,99.99
2018-07-12T00:50:46.301Z,99.99
2018-07-12T00:51:44.189Z,99.99
2018-07-12T00:52:45.180Z,99.99
2018-07-12T00:53:44.174Z,99.99
2018-07-12T00:54:44.168Z,99.99
2018-07-12T00:55:44.088Z,99.99
2018-07-12T00:56:44.078Z,99.99
2018-07-12T00:57:44.100Z,99.99
2018-07-12T00:58:44.089Z,99.99
2018-07-12T00:59:43.979Z,99.99
2018-07-12T01:00:44.002Z,99.99
2018-07-12T01:01:43.936Z,99.99
2018-07-12T01:02:44.022Z,99.99
2018-07-12T01:03:43.876Z,99.99
2018-07-12T01:04:43.939Z,99.99
2018-07-12T01:05:43.827Z,99.99
2018-07-12T01:06:43.839Z,99.99
2018-07-12T01:07:43.789Z,99.99
2018-07-12T01:08:43.854Z,99.99
2018-07-12T01:09:43.730Z,99.99
2018-07-12T01:10:44.793Z,99.99
2018-07-12T01:11:43.675Z,99.99
2018-07-12T01:12:44.702Z,99.99
2018-07-12T01:13:43.621Z,99.99
2018-07-12T01:14:43.626Z,99.99
2018-07-12T01:15:43.570Z,99.99
2018-07-12T01:16:43.611Z,99.99
2018-07-12T01:17:43.540Z,99.99
2018-07-12T01:19:29.277Z,99.99
2018-07-12T01:20:29.291Z,99.99
2018-07-12T01:21:29.193Z,99.99
2018-07-12T01:22:29.198Z,99.99
2018-07-12T01:23:29.140Z,99.99
2018-07-12T01:24:30.248Z,99.99
2018-07-12T01:25:29.084Z,99.99
2018-07-12T01:26:29.138Z,99.99
2018-07-12T01:27:29.051Z,99.99
2018-07-12T01:28:29.034Z,99.99
2018-07-12T01:29:28.987Z,99.99
2018-07-12T01:30:29.045Z,99.99
2018-07-12T01:31:28.939Z,99.99
2018-07-12T01:32:28.958Z,99.99
2018-07-12T01:33:28.926Z,99.99
2018-07-12T01:34:28.973Z,99.99
2018-07-12T01:35:28.832Z,99.99
2018-07-12T01:36:28.894Z,99.99
2018-07-12T01:37:28.789Z,99.99
2018-07-12T01:38:28.798Z,99.99
2018-07-12T01:39:28.737Z,99.99
2018-07-12T01:40:28.811Z,99.99
2018-07-12T01:41:28.690Z,99.99
2018-07-12T01:42:28.709Z,99.99
2018-07-12T01:43:28.642Z,99.99
2018-07-12T01:44:29.646Z,99.99
2018-07-12T01:45:28.579Z,99.99
2018-07-12T01:46:28.639Z,99.99
2018-07-12T01:47:28.521Z,99.99
2018-07-12T01:48:28.541Z,99.99
2018-07-12T01:49:28.489Z,99.99
2018-07-12T01:50:28.552Z,99.99
2018-07-12T01:51:28.428Z,99.99
2018-07-12T01:52:28.491Z,99.99
2018-07-12T01:53:28.382Z,99.99
2018-07-12T01:54:28.377Z,99.99
2018-07-12T01:55:28.321Z,99.99
2018-07-12T01:56:28.398Z,99.99
2018-07-12T01:57:28.294Z,99.99
2018-07-12T01:58:28.298Z,99.99
2018-07-12T01:59:28.225Z,99.99
2018-07-12T02:00:29.276Z,99.99
2018-07-12T02:01:28.167Z,99.99
2018-07-12T02:02:30.184Z,99.99
2018-07-12T02:03:28.117Z,99.99
2018-07-12T02:04:30.188Z,99.99
2018-07-12T02:05:28.072Z,99.99
2018-07-12T02:06:28.153Z,99.99
2018-07-12T02:07:28.021Z,99.99
2018-07-12T02:08:29.083Z,99.99
2018-07-12T02:09:27.961Z,99.99
2018-07-12T02:10:28.006Z,99.99
2018-07-12T02:11:27.909Z,99.99
2018-07-12T02:12:27.978Z,99.99
2018-07-12T02:13:27.879Z,99.99
2018-07-12T02:14:27.896Z,99.99
2018-07-12T02:15:27.806Z,99.99
2018-07-12T02:16:27.811Z,99.99
2018-07-12T02:17:27.766Z,99.99
2018-07-12T02:18:27.816Z,99.99
2018-07-12T02:19:27.708Z,99.99
2018-07-12T02:20:27.735Z,99.99
2018-07-12T02:21:27.708Z,99.99
2018-07-12T02:22:28.674Z,99.99
2018-07-12T02:23:27.615Z,99.99
2018-07-12T02:24:27.646Z,99.99
2018-07-12T02:25:27.548Z,99.99
2018-07-12T02:26:27.575Z,99.99
2018-07-12T02:27:27.556Z,99.99
2018-07-12T02:28:27.569Z,99.99
2018-07-12T02:29:27.456Z,99.99
2018-07-12T02:30:27.496Z,99.99
2018-07-12T02:31:27.413Z,99.99
2018-07-12T02:32:27.407Z,99.99
2018-07-12T02:33:27.378Z,99.99
2018-07-12T02:35:10.705Z,99.99
2018-07-12T02:36:11.665Z,99.99
2018-07-12T02:53:06.760Z,99.99
2018-07-12T02:54:06.678Z,99.99
2018-07-12T02:55:07.682Z,99.99
2018-07-12T02:56:06.635Z,99.99
2018-07-12T02:57:06.664Z,99.99
2018-07-12T02:58:06.577Z,99.99
2018-07-12T02:59:06.580Z,99.99
2018-07-12T03:00:06.520Z,99.99
2018-07-12T03:01:06.691Z,99.99
2018-07-12T03:02:06.481Z,99.99
2018-07-12T03:03:06.500Z,99.99
2018-07-12T03:04:06.425Z,99.99
2018-07-12T03:05:06.413Z,99.99
2018-07-12T03:06:06.373Z,99.99
2018-07-12T03:07:06.423Z,99.99
2018-07-12T03:08:06.322Z,99.99
2018-07-12T03:09:06.330Z,99.99
2018-07-12T03:10:06.267Z,99.99
2018-07-12T03:11:06.352Z,99.99
2018-07-12T03:12:06.226Z,99.99
2018-07-12T03:13:06.266Z,99.99
2018-07-12T03:14:06.169Z,99.99
2018-07-12T03:15:06.179Z,99.99
2018-07-12T03:16:06.134Z,99.99
2018-07-12T03:17:07.101Z,99.99
2018-07-12T03:18:06.070Z,99.99
2018-07-12T03:19:06.090Z,99.99
2018-07-12T03:20:06.011Z,99.99
2018-07-12T03:21:06.007Z,99.99
2018-07-12T03:22:05.956Z,99.99
2018-07-12T03:23:06.025Z,99.99
2018-07-12T03:24:05.925Z,99.99
2018-07-12T03:25:05.924Z,99.99
2018-07-12T03:26:05.869Z,99.99
2018-07-12T03:27:06.046Z,99.99
2018-07-12T03:28:05.820Z,99.99
2018-07-12T03:29:05.878Z,99.99
2018-07-12T03:30:05.760Z,99.99
2018-07-12T03:31:05.763Z,99.99
2018-07-12T03:32:05.708Z,99.99
2018-07-12T03:33:06.708Z,99.99
2018-07-12T03:34:05.653Z,99.99
2018-07-12T03:35:05.700Z,99.99
2018-07-12T03:36:05.640Z,99.99
2018-07-12T03:37:05.658Z,99.99
2018-07-12T03:42:21.104Z,99.99
2018-07-12T03:43:21.098Z,99.99
2018-07-12T03:44:21.009Z,99.99
2018-07-12T03:45:22.068Z,99.99
2018-07-12T03:46:20.955Z,99.99
2018-07-12T03:47:22.974Z,99.99
2018-07-12T03:48:20.902Z,99.99
2018-07-12T03:49:20.937Z,99.99
2018-07-12T03:50:20.846Z,99.99
2018-07-12T03:51:20.847Z,99.99
2018-07-12T03:52:20.795Z,99.99
2018-07-12T03:53:20.863Z,99.99
2018-07-12T03:54:20.739Z,99.99
2018-07-12T03:55:20.774Z,99.99
2018-07-12T03:56:20.728Z,99.99
2018-07-12T03:57:20.780Z,99.99
2018-07-12T03:58:20.683Z,99.99
2018-07-12T04:07:12.633Z,99.99
2018-07-12T04:08:12.488Z,99.99
2018-07-12T04:09:12.580Z,99.99
2018-07-12T04:10:12.433Z,99.99
2018-07-12T04:11:12.560Z,99.99
2018-07-12T04:12:12.381Z,99.99
2018-07-12T04:13:12.382Z,99.99
2018-07-12T04:14:12.347Z,99.99
2018-07-12T04:15:12.448Z,99.99
2018-07-12T04:16:12.301Z,99.99
2018-07-12T04:17:13.422Z,99.99
2018-07-12T04:18:12.252Z,99.99
2018-07-12T04:19:13.240Z,99.99
2018-07-12T04:20:12.179Z,99.99
2018-07-12T04:21:13.257Z,99.99
2018-07-12T04:22:12.131Z,99.99
2018-07-12T04:23:12.139Z,99.99
2018-07-12T04:24:12.092Z,99.99
2018-07-12T04:25:13.074Z,99.99
2018-07-12T04:26:12.041Z,99.99
2018-07-12T04:27:12.057Z,99.99
2018-07-12T04:28:12.006Z,99.99
2018-07-12T04:29:11.967Z,99.99
2018-07-12T04:30:11.938Z,99.99
2018-07-12T04:31:11.990Z,99.99
2018-07-12T04:32:11.892Z,99.99
2018-07-12T04:33:11.906Z,99.99
2018-07-12T04:34:11.843Z,99.99
2018-07-12T04:35:11.955Z,99.99
2018-07-12T04:36:11.779Z,99.99
2018-07-12T04:37:12.840Z,99.99
2018-07-12T04:38:11.736Z,99.99
2018-07-12T04:39:11.740Z,99.99
2018-07-12T04:40:11.723Z,99.99
2018-07-12T04:41:11.752Z,99.99
2018-07-12T04:42:11.639Z,99.99
2018-07-12T04:43:12.686Z,99.99
2018-07-12T04:44:11.630Z,99.99
2018-07-12T04:45:11.660Z,99.99
2018-07-12T04:46:11.530Z,99.99
2018-07-12T04:47:11.604Z,99.99
2018-07-12T04:48:11.480Z,99.99
2018-07-12T04:49:11.484Z,99.99
2018-07-12T04:50:11.431Z,99.99
2018-07-12T04:51:11.572Z,99.99
2018-07-12T04:52:11.383Z,99.99
2018-07-12T04:53:11.481Z,99.99
2018-07-12T04:54:11.344Z,99.99
2018-07-12T04:55:11.323Z,99.99
2018-07-12T04:56:11.281Z,99.99
2018-07-12T04:57:12.353Z,99.99
2018-07-12T04:58:11.267Z,99.99
2018-07-12T04:59:11.268Z,99.99
2018-07-12T05:00:11.187Z,99.99
2018-07-12T05:01:11.263Z,99.99
2018-07-12T05:02:11.123Z,99.99
2018-07-12T05:03:11.170Z,99.99
2018-07-12T05:04:11.101Z,99.99
2018-07-12T05:05:12.104Z,99.99
2018-07-12T05:06:11.049Z,99.99
2018-07-12T05:07:12.009Z,99.99
2018-07-12T05:08:10.989Z,99.99
2018-07-12T05:09:11.014Z,99.99
2018-07-12T05:10:10.920Z,99.99
2018-07-12T05:12:46.405Z,99.99
2018-07-12T05:13:46.324Z,99.99
2018-07-12T05:14:46.263Z,99.99
2018-07-12T05:15:47.244Z,99.99
2018-07-12T05:16:46.219Z,99.99
2018-07-12T05:17:46.198Z,99.99
2018-07-12T05:18:46.193Z,99.99
2018-07-12T05:19:46.160Z,99.99
2018-07-12T05:20:46.109Z,99.99
2018-07-12T05:21:46.091Z,99.99
2018-07-12T05:22:46.105Z,99.99
2018-07-12T05:23:46.055Z,99.99
2018-07-12T05:24:46.021Z,99.99
2018-07-12T05:25:46.014Z,99.99
2018-07-12T05:26:45.973Z,99.99
2018-07-12T05:27:45.954Z,99.99
2018-07-12T05:28:45.926Z,99.99
2018-07-12T05:29:45.903Z,99.99
2018-07-12T05:30:45.920Z,99.99
2018-07-12T05:31:45.842Z,99.99
2018-07-12T05:32:45.816Z,99.99
2018-07-12T05:33:45.791Z,99.99
2018-07-12T05:34:45.774Z,99.99
2018-07-12T05:35:45.743Z,99.99
2018-07-12T05:36:45.710Z,99.99
2018-07-12T05:37:46.684Z,99.99
2018-07-12T05:38:45.660Z,99.99
2018-07-12T05:39:45.645Z,99.99
2018-07-12T05:40:45.608Z,99.99
2018-07-12T05:41:45.591Z,99.99
2018-07-12T05:42:45.575Z,99.99
2018-07-12T05:43:46.569Z,99.99
2018-07-12T05:44:45.501Z,99.99
2018-07-12T05:45:45.502Z,99.99
2018-07-12T05:46:45.504Z,99.99
2018-07-12T05:47:45.444Z,99.99
2018-07-12T05:48:45.412Z,99.99
2018-07-12T05:49:45.393Z,99.99
2018-07-12T05:50:45.349Z,99.99
2018-07-12T05:51:45.348Z,99.99
2018-07-12T05:52:45.312Z,99.99
2018-07-12T05:53:45.281Z,99.99
2018-07-12T05:54:45.252Z,99.99
2018-07-12T05:55:46.236Z,99.99
2018-07-12T05:56:45.200Z,99.99
2018-07-12T05:57:47.188Z,99.99
2018-07-12T05:58:45.146Z,99.99
2018-07-12T05:59:47.139Z,99.99
2018-07-12T06:00:45.098Z,99.99
2018-07-12T06:01:45.101Z,99.99
2018-07-12T06:02:45.051Z,99.99
2018-07-12T06:03:56.021Z,99.99
2018-07-12T06:04:45.020Z,99.99
2018-07-12T06:05:44.980Z,99.99
2018-07-12T06:12:54.897Z,99.99
2018-07-12T06:13:54.841Z,99.99
2018-07-12T06:14:54.800Z,99.99
2018-07-12T06:15:54.792Z,99.99
2018-07-12T06:16:54.790Z,99.99
2018-07-12T06:17:54.739Z,99.99
2018-07-12T06:18:54.713Z,99.99
2018-07-12T06:19:54.771Z,99.99
2018-07-12T06:20:54.646Z,99.99
2018-07-12T06:21:54.626Z,99.99
2018-07-12T06:22:54.602Z,99.99
2018-07-12T06:23:54.593Z,99.99
2018-07-12T06:24:54.568Z,99.99
2018-07-12T06:25:54.604Z,99.99
2018-07-12T06:26:54.498Z,99.99
2018-07-12T06:27:54.638Z,99.99
2018-07-12T06:28:54.569Z,99.99
2018-07-12T06:29:54.523Z,99.99
2018-07-12T06:30:54.419Z,99.99
2018-07-12T06:31:54.463Z,99.99
2018-07-12T06:32:54.343Z,99.99
2018-07-12T06:33:54.343Z,99.99
2018-07-12T06:34:54.300Z,99.99
2018-07-12T06:35:54.363Z,99.99
2018-07-12T06:36:54.241Z,99.99
2018-07-12T06:37:54.274Z,99.99
2018-07-12T06:38:54.222Z,99.99
2018-07-12T06:39:54.288Z,99.99
2018-07-12T06:40:54.173Z,99.99
2018-07-12T06:41:55.239Z,99.99
2018-07-12T06:42:54.092Z,99.99
2018-07-12T06:43:54.110Z,99.99
2018-07-12T06:44:54.047Z,99.99
2018-07-12T06:45:54.121Z,99.99
2018-07-12T06:46:54.005Z,99.99
2018-07-12T06:48:41.236Z,99.99
2018-07-12T06:49:43.317Z,99.99
2018-07-12T06:50:41.151Z,99.99
2018-07-12T06:51:41.158Z,99.99
2018-07-12T06:52:41.103Z,99.99
2018-07-12T06:53:41.176Z,99.99
2018-07-12T06:54:41.051Z,99.99
2018-07-12T06:55:42.095Z,99.99
2018-07-12T06:56:41.005Z,99.99
2018-07-12T06:57:40.984Z,99.99
2018-07-12T06:58:40.945Z,99.99
2018-07-12T06:59:42.022Z,99.99
2018-07-12T07:00:40.967Z,99.99
2018-07-12T07:01:40.908Z,99.99
2018-07-12T07:02:40.850Z,99.99
2018-07-12T07:03:40.917Z,99.99
2018-07-12T07:04:40.800Z,99.99
2018-07-12T07:05:40.844Z,99.99
2018-07-12T07:06:40.775Z,99.99
2018-07-12T07:07:45.554Z,99.99
2018-07-12T07:08:40.698Z,99.99
2018-07-12T07:09:40.757Z,99.99
2018-07-12T07:10:40.645Z,99.99
2018-07-12T07:11:47.533Z,99.99
2018-07-12T07:12:40.596Z,99.99
2018-07-12T07:13:46.519Z,99.99
2018-07-12T07:14:40.578Z,99.99
2018-07-12T07:15:40.517Z,99.99
2018-07-12T07:16:41.568Z,99.99
2018-07-12T07:17:40.467Z,99.99
2018-07-12T07:18:42.547Z,99.99
2018-07-12T07:19:40.411Z,99.99
2018-07-12T07:20:40.473Z,99.99
2018-07-12T07:21:40.371Z,99.99
2018-07-12T07:22:40.442Z,99.99
2018-07-12T07:23:40.320Z,99.99
2018-07-12T07:24:40.356Z,99.99
2018-07-12T07:25:40.327Z,99.99
2018-07-12T07:26:40.367Z,99.99
2018-07-12T07:27:40.257Z,99.99
2018-07-12T07:28:40.276Z,99.99
2018-07-12T07:29:40.209Z,99.99
2018-07-12T07:30:40.187Z,99.99
2018-07-12T07:31:40.119Z,99.99
2018-07-12T07:32:40.188Z,99.99
2018-07-12T07:33:40.064Z,99.99
2018-07-12T07:34:40.105Z,99.99
2018-07-12T07:35:40.060Z,99.99
2018-07-12T07:36:40.010Z,99.99
2018-07-12T07:37:39.957Z,99.99
2018-07-12T07:38:40.023Z,99.99
2018-07-12T07:39:39.918Z,99.99
2018-07-12T07:40:39.928Z,99.99
2018-07-12T07:41:39.871Z,99.99
2018-07-12T07:42:39.959Z,99.99
2018-07-12T07:43:39.814Z,99.99
2018-07-12T07:44:39.859Z,99.11
2018-07-12T07:45:39.775Z,98.54
2018-07-12T07:46:40.795Z,98.54
2018-07-12T07:47:39.724Z,98.05
2018-07-12T07:48:39.797Z,97.76
2018-07-12T07:49:39.667Z,97.67
2018-07-12T07:50:39.797Z,95.94
2018-07-12T07:51:39.619Z,95.55
2018-07-12T07:52:39.707Z,95.07
2018-07-12T07:53:39.572Z,95.26
2018-07-12T07:54:39.609Z,94.49
2018-07-12T07:55:39.526Z,95.84
2018-07-12T07:56:39.527Z,96.51
2018-07-12T07:57:39.465Z,96.32
2018-07-12T07:58:39.542Z,95.07
2018-07-12T07:59:39.423Z,95.55
2018-07-12T08:00:39.449Z,95.17
2018-07-12T08:01:39.362Z,94.64
2018-07-12T08:02:39.366Z,95.45
2018-07-12T08:03:39.313Z,95.69
2018-07-12T08:04:39.368Z,94.15
2018-07-12T08:05:39.270Z,92.71
2018-07-12T08:06:39.291Z,93.57
2018-07-12T08:07:39.212Z,93.77
2018-07-12T08:08:39.324Z,93.87
2018-07-12T08:09:39.163Z,95.98
2018-07-12T08:10:39.207Z,96.94
2018-07-12T08:11:39.116Z,96.66
2018-07-12T08:12:39.094Z,94.92
2018-07-12T08:13:39.076Z,94.25
2018-07-12T08:14:39.134Z,94.20
2018-07-12T08:15:39.015Z,94.01
2018-07-12T08:16:39.046Z,93.19
2018-07-12T08:17:38.967Z,92.18
2018-07-12T08:18:38.955Z,92.71
2018-07-12T08:19:38.918Z,92.76
2018-07-12T08:20:38.960Z,92.27
2018-07-12T08:21:38.888Z,92.76
2018-07-12T08:22:39.912Z,95.16
2018-07-12T08:23:38.842Z,93.52
2018-07-12T08:24:38.894Z,91.41
2018-07-12T08:25:38.761Z,90.54
2018-07-12T08:26:38.806Z,92.08
2018-07-12T08:27:38.711Z,91.12
2018-07-12T08:28:38.704Z,90.06
2018-07-12T08:29:38.665Z,93.43
2018-07-12T08:30:38.726Z,90.54
2018-07-12T08:31:38.614Z,91.02
2018-07-12T08:32:38.669Z,91.26
2018-07-12T08:33:38.569Z,91.06
2018-07-12T08:34:38.687Z,89.09
2018-07-12T08:35:38.521Z,89.04
2018-07-12T08:36:38.565Z,90.30
2018-07-12T08:37:38.479Z,90.97
2018-07-12T08:38:38.464Z,88.95
2018-07-12T08:39:38.422Z,87.70
2018-07-12T08:40:38.497Z,88.17
2018-07-12T08:41:38.367Z,87.98
2018-07-12T08:42:38.393Z,87.79
2018-07-12T08:43:38.323Z,86.35
2018-07-12T08:44:38.411Z,86.35
2018-07-12T08:45:38.269Z,87.12
2018-07-12T08:46:38.249Z,87.12
2018-07-12T08:47:38.226Z,87.70
2018-07-12T08:48:38.232Z,87.93
2018-07-12T08:49:38.170Z,85.61
2018-07-12T08:50:38.146Z,85.33
2018-07-12T08:51:38.120Z,85.81
2018-07-12T08:52:38.114Z,84.75
2018-07-12T08:53:38.072Z,86.10
2018-07-12T08:54:38.063Z,85.23
2018-07-12T08:55:38.022Z,85.56
2018-07-12T08:56:38.006Z,86.04
2018-07-12T08:57:37.970Z,84.79
2018-07-12T08:58:37.945Z,84.01
2018-07-12T08:59:37.928Z,82.67
2018-07-12T09:00:37.936Z,82.67
2018-07-12T09:01:37.873Z,82.51
2018-07-12T09:02:37.908Z,82.42
2018-07-12T09:03:37.822Z,81.07
2018-07-12T09:04:37.819Z,80.30
2018-07-12T09:05:37.779Z,79.91
2018-07-12T09:06:37.758Z,79.14
2018-07-12T09:07:37.730Z,80.82
2018-07-12T09:08:37.711Z,79.85
2018-07-12T09:09:37.676Z,80.05
2018-07-12T09:10:37.663Z,77.53
2018-07-12T09:11:37.638Z,78.59
2018-07-12T09:12:37.611Z,78.56
2018-07-12T09:13:37.687Z,78.50
2018-07-12T09:14:37.560Z,78.31
2018-07-12T09:15:37.689Z,79.47
2018-07-12T09:16:37.523Z,78.89
2018-07-12T09:17:37.516Z,77.92
2018-07-12T09:18:37.457Z,78.06
2018-07-12T09:19:37.433Z,77.09
2018-07-12T09:20:37.412Z,75.35
2018-07-12T09:21:37.440Z,75.93
2018-07-12T09:22:37.358Z,77.42
2018-07-12T09:23:37.341Z,77.61
2018-07-12T09:24:37.323Z,78.58
2018-07-12T09:25:37.294Z,76.78
2018-07-12T09:26:37.273Z,76.59
2018-07-12T09:27:37.250Z,74.46
2018-07-12T09:28:37.217Z,74.17
2018-07-12T09:29:37.230Z,74.32
2018-07-12T09:30:37.176Z,74.55
2018-07-12T09:31:37.154Z,74.46
2018-07-12T09:32:37.125Z,75.04
2018-07-12T09:33:37.119Z,75.04
2018-07-12T09:34:37.076Z,74.40
2018-07-12T09:35:37.065Z,72.91
2018-07-12T09:36:37.036Z,73.68
2018-07-12T09:37:37.027Z,73.59
2018-07-12T09:38:36.982Z,74.32
2018-07-12T09:39:37.008Z,74.90
2018-07-12T09:40:36.943Z,75.39
2018-07-12T09:41:36.921Z,75.48
2018-07-12T09:42:36.930Z,75.78
2018-07-12T09:43:36.875Z,76.35
2018-07-12T09:44:36.842Z,76.84
2018-07-12T09:45:36.822Z,76.84
2018-07-12T09:46:36.814Z,78.19
2018-07-12T09:47:36.981Z,75.97
2018-07-12T09:48:36.756Z,78.00
2018-07-12T09:49:36.769Z,77.22
2018-07-12T09:50:36.701Z,75.62
2018-07-12T09:51:36.793Z,76.97
2018-07-12T09:52:36.650Z,76.97
2018-07-12T09:53:36.693Z,74.27
2018-07-12T09:54:36.601Z,75.04
2018-07-12T09:55:36.634Z,74.94
2018-07-12T09:56:36.575Z,74.55
2018-07-12T09:57:36.629Z,74.65
2018-07-12T09:58:36.516Z,75.95
2018-07-12T09:59:36.551Z,76.72
2018-07-12T10:00:36.461Z,73.91
2018-07-12T10:01:36.546Z,74.11
2018-07-12T10:02:36.412Z,74.65
2018-07-12T10:03:37.496Z,73.97
2018-07-12T10:04:36.368Z,74.55
2018-07-12T10:05:36.352Z,75.20
2018-07-12T10:06:36.334Z,74.96
2018-07-12T10:07:36.309Z,75.93
2018-07-12T10:08:36.321Z,76.42
2018-07-12T10:09:36.264Z,76.61
2018-07-12T10:10:36.302Z,76.51
2018-07-12T10:11:36.201Z,76.35
2018-07-12T10:12:36.180Z,75.20
2018-07-12T10:13:36.183Z,74.90
2018-07-12T10:14:36.265Z,73.94
2018-07-12T10:15:36.107Z,72.88
2018-07-12T10:16:36.089Z,72.88
2018-07-12T10:17:36.069Z,72.58
2018-07-12T10:18:36.043Z,72.52
2018-07-12T10:19:36.021Z,72.72
2018-07-12T10:20:36.014Z,74.40
2018-07-12T10:21:35.975Z,72.56
2018-07-12T10:22:35.993Z,73.04
2018-07-12T10:23:35.921Z,71.50
2018-07-12T10:24:35.912Z,71.01
2018-07-12T10:25:35.875Z,70.82
2018-07-12T10:26:35.860Z,70.53
2018-07-12T10:27:35.829Z,72.33
2018-07-12T10:28:35.813Z,71.50
2018-07-12T10:29:35.788Z,68.79
2018-07-12T10:30:35.754Z,70.04
2018-07-12T10:31:35.732Z,69.95
2018-07-12T10:32:35.721Z,70.27
2018-07-12T10:33:35.686Z,70.47
2018-07-12T10:34:35.680Z,70.66
2018-07-12T10:35:35.640Z,70.18
2018-07-12T10:36:35.644Z,71.40
2018-07-12T10:37:35.636Z,71.11
2018-07-12T10:38:35.672Z,70.53
2018-07-12T10:39:35.568Z,72.85
2018-07-12T10:40:36.591Z,71.59
2018-07-12T10:41:35.508Z,71.72
2018-07-12T10:43:21.257Z,72.27
2018-07-12T10:44:21.274Z,73.04
2018-07-12T10:45:21.179Z,72.33
2018-07-12T10:46:21.175Z,72.33
2018-07-12T10:47:21.126Z,72.42
2018-07-12T10:48:21.183Z,73.04
2018-07-12T10:49:21.098Z,73.04
2018-07-12T10:50:21.096Z,72.46
2018-07-12T10:51:21.049Z,72.27
2018-07-12T10:52:21.114Z,72.50
2018-07-12T10:53:20.994Z,70.11
2018-07-12T10:54:21.011Z,68.56
2018-07-12T10:55:20.966Z,68.50
2018-07-12T10:56:21.048Z,71.70
2018-07-12T10:57:20.908Z,68.50
2018-07-12T10:58:20.964Z,68.76
2018-07-12T10:59:20.886Z,69.50
2018-07-12T11:00:20.857Z,71.34
2018-07-12T11:01:20.816Z,71.62
2018-07-12T11:02:20.862Z,71.50
2018-07-12T11:03:20.760Z,71.59
2018-07-12T11:04:20.773Z,72.52
2018-07-12T11:05:20.720Z,73.20
2018-07-12T11:06:20.795Z,72.33
2018-07-12T11:07:20.667Z,73.10
2018-07-12T11:08:20.693Z,71.69
2018-07-12T11:09:20.630Z,72.75
2018-07-12T11:10:21.648Z,71.69
2018-07-12T11:11:20.588Z,72.75
2018-07-12T11:12:20.789Z,71.34
2018-07-12T11:13:20.528Z,72.79
2018-07-12T11:14:20.861Z,70.60
2018-07-12T11:15:20.787Z,68.37
2018-07-12T11:16:20.460Z,67.98
2018-07-12T11:17:20.515Z,68.18
2018-07-12T11:18:20.413Z,67.60
2018-07-12T11:19:20.442Z,66.37
2018-07-12T11:20:20.369Z,65.20
2018-07-12T11:21:20.440Z,66.27
2018-07-12T11:22:20.355Z,66.53
2018-07-12T11:23:20.360Z,67.02
2018-07-12T11:24:20.281Z,67.56
2018-07-12T11:25:20.288Z,68.59
2018-07-12T11:26:20.241Z,69.56
2018-07-12T11:27:20.243Z,69.69
2018-07-12T11:28:20.194Z,69.21
2018-07-12T11:29:20.188Z,69.40
2018-07-12T11:30:20.205Z,69.21
2018-07-12T11:31:20.115Z,69.17
2018-07-12T11:32:20.103Z,68.49
2018-07-12T11:33:20.076Z,69.66
2018-07-12T11:34:20.070Z,70.04
2018-07-12T11:35:20.067Z,69.08
2018-07-12T11:36:20.080Z,68.43
2018-07-12T11:37:20.006Z,68.33
2018-07-12T11:38:20.060Z,67.18
2018-07-12T11:40:06.226Z,68.63
2018-07-12T11:41:06.133Z,69.31
2018-07-12T11:42:06.118Z,67.76
2018-07-12T11:43:06.081Z,66.30
2018-07-12T11:44:06.073Z,67.08
2018-07-12T11:45:06.039Z,67.91
2018-07-12T11:46:06.028Z,68.21
2018-07-12T11:47:05.995Z,69.08
2018-07-12T11:48:05.962Z,70.24
2018-07-12T11:49:05.942Z,68.88
2018-07-12T11:50:05.916Z,68.82
2018-07-12T11:51:05.889Z,69.11
2018-07-12T11:52:05.890Z,66.88
2018-07-12T11:53:05.843Z,65.85
2018-07-12T11:54:05.815Z,66.34
2018-07-12T11:55:05.801Z,65.85
2018-07-12T11:56:05.798Z,64.82
2018-07-12T11:57:05.760Z,64.53
2018-07-12T11:58:05.723Z,64.92
2018-07-12T11:59:05.713Z,65.30
2018-07-12T12:00:05.676Z,65.30
2018-07-12T12:01:05.660Z,65.50
2018-07-12T12:02:05.709Z,65.50
2018-07-12T12:03:07.765Z,65.79
2018-07-12T12:04:05.589Z,65.01
2018-07-12T12:05:05.562Z,64.95
2018-07-12T12:06:05.545Z,64.65
2018-07-12T12:07:05.523Z,64.56
2018-07-12T12:08:05.491Z,64.17
2018-07-12T12:09:05.885Z,62.72
2018-07-12T12:10:05.450Z,62.43
2018-07-12T12:11:05.435Z,61.94
2018-07-12T12:12:05.406Z,62.82
2018-07-12T12:13:07.382Z,62.62
2018-07-12T12:14:05.358Z,61.91
2018-07-12T12:15:05.356Z,62.69
2018-07-12T12:16:05.310Z,62.98
2018-07-12T12:17:05.289Z,64.34
2018-07-12T12:18:05.272Z,63.78
2018-07-12T12:19:05.258Z,63.20
2018-07-12T12:20:05.211Z,62.13
2018-07-12T12:21:05.193Z,63.78
2018-07-12T12:22:05.169Z,62.91
2018-07-12T12:23:05.159Z,64.43
2018-07-12T12:24:05.129Z,64.53
2018-07-12T12:25:05.116Z,65.08
2018-07-12T12:26:05.085Z,65.17
2018-07-12T12:27:05.076Z,64.98
2018-07-12T12:28:05.036Z,65.56
2018-07-12T12:29:05.033Z,65.40
2018-07-12T12:30:05.007Z,64.92
2018-07-12T12:31:04.980Z,65.34
2018-07-12T12:32:04.963Z,64.27
2018-07-12T12:33:04.928Z,63.13
2018-07-12T12:34:04.903Z,64.20
2018-07-12T12:35:04.882Z,62.16
2018-07-12T12:36:04.884Z,60.25
2018-07-12T12:37:50.619Z,60.16
2018-07-12T12:38:50.574Z,61.13
2018-07-12T12:39:50.559Z,61.10
2018-07-12T12:40:50.520Z,60.52
2018-07-12T12:41:50.559Z,60.91
2018-07-12T12:42:50.497Z,60.91
2018-07-12T12:43:50.456Z,60.91
2018-07-12T12:44:51.438Z,59.84
2018-07-12T12:45:50.397Z,59.64
2018-07-12T12:46:50.389Z,59.16
2018-07-12T12:47:50.407Z,59.64
2018-07-12T12:48:50.418Z,60.25
2018-07-12T12:49:50.308Z,59.67
2018-07-12T12:50:50.308Z,58.41
2018-07-12T12:51:50.263Z,58.73
2018-07-12T12:52:50.250Z,57.37
2018-07-12T12:53:50.242Z,56.79
2018-07-12T12:54:50.200Z,56.40
2018-07-12T12:55:50.176Z,57.18
2018-07-12T12:56:50.165Z,57.76
2018-07-12T12:57:50.146Z,56.50
2018-07-12T12:58:50.112Z,57.28
2018-07-12T12:59:50.082Z,57.34
2018-07-12T13:00:50.065Z,58.41
2018-07-12T13:01:50.040Z,57.06
2018-07-12T13:02:51.042Z,58.61
2018-07-12T13:03:49.998Z,56.70
2018-07-12T13:04:49.974Z,56.89
2018-07-12T13:05:50.168Z,57.57
2018-07-12T13:06:49.927Z,57.96
2018-07-12T13:07:49.915Z,56.70
2018-07-12T13:08:49.909Z,56.79
2018-07-12T13:09:49.857Z,58.15
2018-07-12T13:10:49.844Z,57.28
2018-07-12T13:11:49.818Z,56.79
2018-07-12T13:12:49.797Z,56.98
2018-07-12T13:13:49.766Z,57.37
2018-07-12T13:14:49.749Z,56.98
2018-07-12T13:15:49.766Z,57.47
2018-07-12T13:16:49.708Z,57.18
2018-07-12T13:17:49.718Z,57.67
2018-07-12T13:18:49.665Z,56.89
2018-07-12T13:19:49.694Z,56.21
2018-07-12T13:20:49.614Z,57.08
2018-07-12T13:21:49.598Z,56.76
2018-07-12T13:22:49.583Z,57.25
2018-07-12T13:23:49.562Z,56.86
2018-07-12T13:24:49.562Z,56.67
2018-07-12T13:25:49.556Z,56.89
2018-07-12T13:26:49.487Z,55.53
2018-07-12T13:27:49.489Z,55.63
2018-07-12T13:28:49.445Z,55.31
2018-07-12T13:29:49.411Z,54.72
2018-07-12T13:30:50.429Z,54.44
2018-07-12T13:31:49.366Z,56.28
2018-07-12T13:32:49.354Z,55.24
2018-07-12T13:33:49.349Z,53.69
2018-07-12T13:34:49.308Z,54.36
2018-07-12T13:35:49.296Z,55.17